sensor_id;sensor_type;location;lat;lon;timestamp;P1;durP1;ratioP1;P2;durP2;ratioP2
66179;SDS011;52986;44.028;20.466;2022-10-16T00:02:22;28.15;;;13.52;;
66179;SDS011;52986;44.028;20.466;2022-10-16T00:04:48;27.45;;;13.13;;
66179;SDS011;52986;44.028;20.466;2022-10-16T00:07:13;28.65;;;13.35;;
66179;SDS011;52986;44.028;20.466;2022-10-16T00:09:39;26.48;;;12.88;;
66179;SDS011;52986;44.028;20.466;2022-10-16T00:12:04;25.95;;;12.82;;
66179;SDS011;52986;44.028;20.466;2022-10-16T00:14:31;25.42;;;13.15;;
66179;SDS011;52986;44.028;20.466;2022-10-16T00:16:57;25.55;;;13.10;;
66179;SDS011;52986;44.028;20.466;2022-10-16T00:19:22;28.10;;;12.85;;
66179;SDS011;52986;44.028;20.466;2022-10-16T00:21:48;27.40;;;13.30;;
66179;SDS011;52986;44.028;20.466;2022-10-16T00:24:13;25.52;;;12.18;;
66179;SDS011;52986;44.028;20.466;2022-10-16T00:26:39;23.90;;;12.18;;
66179;SDS011;52986;44.028;20.466;2022-10-16T00:29:04;23.63;;;12.00;;
66179;SDS011;52986;44.028;20.466;2022-10-16T00:31:30;24.98;;;12.05;;
66179;SDS011;52986;44.028;20.466;2022-10-16T00:33:56;24.63;;;12.10;;
66179;SDS011;52986;44.028;20.466;2022-10-16T00:36:24;23.98;;;11.63;;
66179;SDS011;52986;44.028;20.466;2022-10-16T00:38:51;26.20;;;11.98;;
66179;SDS011;52986;44.028;20.466;2022-10-16T00:41:21;25.77;;;11.77;;
66179;SDS011;52986;44.028;20.466;2022-10-16T00:43:49;24.98;;;11.15;;
66179;SDS011;52986;44.028;20.466;2022-10-16T00:46:24;26.45;;;11.65;;
66179;SDS011;52986;44.028;20.466;2022-10-16T00:49:04;26.58;;;12.80;;
66179;SDS011;52986;44.028;20.466;2022-10-16T00:51:32;24.10;;;11.93;;
66179;SDS011;52986;44.028;20.466;2022-10-16T00:54:00;24.13;;;12.25;;
66179;SDS011;52986;44.028;20.466;2022-10-16T00:56:28;25.95;;;11.73;;
66179;SDS011;52986;44.028;20.466;2022-10-16T00:58:53;26.05;;;12.32;;
66179;SDS011;52986;44.028;20.466;2022-10-16T01:01:18;23.75;;;11.63;;
66179;SDS011;52986;44.028;20.466;2022-10-16T01:03:44;25.55;;;11.32;;
66179;SDS011;52986;44.028;20.466;2022-10-16T01:09:21;25.92;;;11.77;;
66179;SDS011;52986;44.028;20.466;2022-10-16T01:17:36;22.13;;;10.60;;
66179;SDS011;52986;44.028;20.466;2022-10-16T01:20:13;21.98;;;10.52;;
66179;SDS011;52986;44.028;20.466;2022-10-16T01:25:19;25.77;;;11.45;;
66179;SDS011;52986;44.028;20.466;2022-10-16T01:27:54;24.88;;;11.65;;
66179;SDS011;52986;44.028;20.466;2022-10-16T01:30:21;23.85;;;10.90;;
66179;SDS011;52986;44.028;20.466;2022-10-16T01:32:59;23.73;;;10.57;;
66179;SDS011;52986;44.028;20.466;2022-10-16T01:40:31;24.35;;;11.13;;
66179;SDS011;52986;44.028;20.466;2022-10-16T01:43:00;25.40;;;11.60;;
66179;SDS011;52986;44.028;20.466;2022-10-16T01:45:30;24.02;;;10.90;;
66179;SDS011;52986;44.028;20.466;2022-10-16T01:47:58;25.50;;;11.90;;
66179;SDS011;52986;44.028;20.466;2022-10-16T01:50:25;24.75;;;10.77;;
66179;SDS011;52986;44.028;20.466;2022-10-16T01:52:52;22.75;;;11.18;;
66179;SDS011;52986;44.028;20.466;2022-10-16T01:55:22;25.55;;;11.10;;
66179;SDS011;52986;44.028;20.466;2022-10-16T01:57:54;22.35;;;10.52;;
66179;SDS011;52986;44.028;20.466;2022-10-16T02:00:21;23.83;;;10.82;;
66179;SDS011;52986;44.028;20.466;2022-10-16T02:02:48;23.73;;;11.35;;
66179;SDS011;52986;44.028;20.466;2022-10-16T02:05:24;25.42;;;11.43;;
66179;SDS011;52986;44.028;20.466;2022-10-16T02:07:53;26.25;;;11.82;;
66179;SDS011;52986;44.028;20.466;2022-10-16T02:10:19;26.15;;;11.65;;
66179;SDS011;52986;44.028;20.466;2022-10-16T02:12:50;24.27;;;11.55;;
66179;SDS011;52986;44.028;20.466;2022-10-16T02:15:21;21.27;;;10.60;;
66179;SDS011;52986;44.028;20.466;2022-10-16T02:17:46;22.70;;;11.02;;
66179;SDS011;52986;44.028;20.466;2022-10-16T02:20:12;24.95;;;11.70;;
66179;SDS011;52986;44.028;20.466;2022-10-16T02:22:42;26.85;;;12.02;;
66179;SDS011;52986;44.028;20.466;2022-10-16T02:25:25;24.23;;;12.02;;
66179;SDS011;52986;44.028;20.466;2022-10-16T02:27:57;25.63;;;12.45;;
66179;SDS011;52986;44.028;20.466;2022-10-16T02:32:56;26.25;;;11.48;;
66179;SDS011;52986;44.028;20.466;2022-10-16T02:35:25;27.27;;;12.00;;
66179;SDS011;52986;44.028;20.466;2022-10-16T02:37:52;24.25;;;11.70;;
66179;SDS011;52986;44.028;20.466;2022-10-16T02:40:19;24.10;;;11.60;;
66179;SDS011;52986;44.028;20.466;2022-10-16T02:42:49;24.88;;;11.25;;
66179;SDS011;52986;44.028;20.466;2022-10-16T02:45:16;26.08;;;11.13;;
66179;SDS011;52986;44.028;20.466;2022-10-16T02:47:41;26.23;;;10.98;;
66179;SDS011;52986;44.028;20.466;2022-10-16T02:50:07;22.10;;;10.65;;
66179;SDS011;52986;44.028;20.466;2022-10-16T02:52:32;26.45;;;10.98;;
66179;SDS011;52986;44.028;20.466;2022-10-16T02:54:58;23.30;;;10.43;;
66179;SDS011;52986;44.028;20.466;2022-10-16T02:57:23;21.17;;;10.40;;
66179;SDS011;52986;44.028;20.466;2022-10-16T02:59:49;23.63;;;10.55;;
66179;SDS011;52986;44.028;20.466;2022-10-16T03:02:14;25.02;;;10.30;;
66179;SDS011;52986;44.028;20.466;2022-10-16T03:04:39;22.30;;;9.93;;
66179;SDS011;52986;44.028;20.466;2022-10-16T03:07:05;23.05;;;10.38;;
66179;SDS011;52986;44.028;20.466;2022-10-16T03:09:31;25.70;;;10.80;;
66179;SDS011;52986;44.028;20.466;2022-10-16T03:11:56;29.05;;;12.43;;
66179;SDS011;52986;44.028;20.466;2022-10-16T03:14:22;22.55;;;10.85;;
66179;SDS011;52986;44.028;20.466;2022-10-16T03:16:47;25.67;;;12.30;;
66179;SDS011;52986;44.028;20.466;2022-10-16T03:19:12;26.23;;;11.55;;
66179;SDS011;52986;44.028;20.466;2022-10-16T03:21:38;24.20;;;11.35;;
66179;SDS011;52986;44.028;20.466;2022-10-16T03:24:03;24.17;;;11.20;;
66179;SDS011;52986;44.028;20.466;2022-10-16T03:26:29;23.65;;;10.52;;
66179;SDS011;52986;44.028;20.466;2022-10-16T03:28:54;22.98;;;10.95;;
66179;SDS011;52986;44.028;20.466;2022-10-16T03:31:20;21.40;;;10.65;;
66179;SDS011;52986;44.028;20.466;2022-10-16T03:33:45;21.20;;;10.13;;
66179;SDS011;52986;44.028;20.466;2022-10-16T03:36:10;23.77;;;9.98;;
66179;SDS011;52986;44.028;20.466;2022-10-16T03:38:36;18.83;;;8.30;;
66179;SDS011;52986;44.028;20.466;2022-10-16T03:41:01;19.00;;;8.75;;
66179;SDS011;52986;44.028;20.466;2022-10-16T03:43:26;18.73;;;9.38;;
66179;SDS011;52986;44.028;20.466;2022-10-16T03:45:52;20.58;;;9.50;;
66179;SDS011;52986;44.028;20.466;2022-10-16T03:48:18;22.92;;;9.20;;
66179;SDS011;52986;44.028;20.466;2022-10-16T03:50:44;21.15;;;9.07;;
66179;SDS011;52986;44.028;20.466;2022-10-16T03:53:09;19.00;;;8.95;;
66179;SDS011;52986;44.028;20.466;2022-10-16T03:55:35;20.13;;;10.32;;
66179;SDS011;52986;44.028;20.466;2022-10-16T03:58:00;27.95;;;13.50;;
66179;SDS011;52986;44.028;20.466;2022-10-16T04:00:26;27.25;;;12.65;;
66179;SDS011;52986;44.028;20.466;2022-10-16T04:02:52;18.65;;;8.95;;
66179;SDS011;52986;44.028;20.466;2022-10-16T04:05:17;20.85;;;9.10;;
66179;SDS011;52986;44.028;20.466;2022-10-16T04:07:42;17.65;;;8.68;;
66179;SDS011;52986;44.028;20.466;2022-10-16T04:10:08;17.20;;;8.43;;
66179;SDS011;52986;44.028;20.466;2022-10-16T04:12:33;21.52;;;9.18;;
66179;SDS011;52986;44.028;20.466;2022-10-16T04:14:58;20.17;;;9.45;;
66179;SDS011;52986;44.028;20.466;2022-10-16T04:17:24;20.83;;;9.93;;
66179;SDS011;52986;44.028;20.466;2022-10-16T04:19:49;18.90;;;8.95;;
66179;SDS011;52986;44.028;20.466;2022-10-16T04:22:15;16.38;;;8.43;;
66179;SDS011;52986;44.028;20.466;2022-10-16T04:24:40;18.65;;;8.85;;
66179;SDS011;52986;44.028;20.466;2022-10-16T04:27:05;18.73;;;8.65;;
66179;SDS011;52986;44.028;20.466;2022-10-16T04:29:31;17.20;;;8.32;;
66179;SDS011;52986;44.028;20.466;2022-10-16T04:31:56;19.75;;;8.35;;
66179;SDS011;52986;44.028;20.466;2022-10-16T04:34:21;16.95;;;7.75;;
66179;SDS011;52986;44.028;20.466;2022-10-16T04:36:47;18.17;;;8.57;;
66179;SDS011;52986;44.028;20.466;2022-10-16T04:39:14;18.58;;;8.18;;
66179;SDS011;52986;44.028;20.466;2022-10-16T04:41:40;19.77;;;8.73;;
66179;SDS011;52986;44.028;20.466;2022-10-16T04:44:05;18.95;;;8.63;;
66179;SDS011;52986;44.028;20.466;2022-10-16T04:46:31;19.05;;;9.00;;
66179;SDS011;52986;44.028;20.466;2022-10-16T04:48:56;21.05;;;9.38;;
66179;SDS011;52986;44.028;20.466;2022-10-16T04:51:21;23.67;;;9.57;;
66179;SDS011;52986;44.028;20.466;2022-10-16T04:53:47;20.98;;;9.68;;
66179;SDS011;52986;44.028;20.466;2022-10-16T04:56:12;23.58;;;10.07;;
66179;SDS011;52986;44.028;20.466;2022-10-16T04:58:38;20.00;;;8.43;;
66179;SDS011;52986;44.028;20.466;2022-10-16T05:01:03;19.20;;;8.68;;
66179;SDS011;52986;44.028;20.466;2022-10-16T05:03:28;20.52;;;9.98;;
66179;SDS011;52986;44.028;20.466;2022-10-16T05:05:54;22.20;;;9.60;;
66179;SDS011;52986;44.028;20.466;2022-10-16T05:08:19;22.48;;;9.43;;
66179;SDS011;52986;44.028;20.466;2022-10-16T05:10:45;18.90;;;8.75;;
66179;SDS011;52986;44.028;20.466;2022-10-16T05:13:11;18.58;;;8.45;;
66179;SDS011;52986;44.028;20.466;2022-10-16T05:15:37;21.88;;;10.18;;
66179;SDS011;52986;44.028;20.466;2022-10-16T05:18:02;20.58;;;9.80;;
66179;SDS011;52986;44.028;20.466;2022-10-16T05:20:28;21.48;;;8.75;;
66179;SDS011;52986;44.028;20.466;2022-10-16T05:22:53;20.95;;;9.75;;
66179;SDS011;52986;44.028;20.466;2022-10-16T05:25:19;24.52;;;10.85;;
66179;SDS011;52986;44.028;20.466;2022-10-16T05:27:47;24.15;;;10.30;;
66179;SDS011;52986;44.028;20.466;2022-10-16T05:30:14;26.77;;;12.52;;
66179;SDS011;52986;44.028;20.466;2022-10-16T05:32:39;28.92;;;13.07;;
66179;SDS011;52986;44.028;20.466;2022-10-16T05:35:05;27.55;;;12.82;;
66179;SDS011;52986;44.028;20.466;2022-10-16T05:37:30;26.85;;;12.40;;
66179;SDS011;52986;44.028;20.466;2022-10-16T05:39:56;27.42;;;12.35;;
66179;SDS011;52986;44.028;20.466;2022-10-16T05:42:21;29.45;;;13.18;;
66179;SDS011;52986;44.028;20.466;2022-10-16T05:44:47;28.15;;;13.73;;
66179;SDS011;52986;44.028;20.466;2022-10-16T05:47:12;30.98;;;13.60;;
66179;SDS011;52986;44.028;20.466;2022-10-16T05:49:37;31.15;;;13.13;;
66179;SDS011;52986;44.028;20.466;2022-10-16T05:52:03;25.85;;;11.68;;
66179;SDS011;52986;44.028;20.466;2022-10-16T05:54:28;21.63;;;10.00;;
66179;SDS011;52986;44.028;20.466;2022-10-16T05:56:54;22.20;;;10.85;;
66179;SDS011;52986;44.028;20.466;2022-10-16T05:59:19;21.15;;;10.48;;
66179;SDS011;52986;44.028;20.466;2022-10-16T06:01:44;22.60;;;11.23;;
66179;SDS011;52986;44.028;20.466;2022-10-16T06:04:10;21.77;;;11.25;;
66179;SDS011;52986;44.028;20.466;2022-10-16T06:06:35;22.48;;;11.18;;
66179;SDS011;52986;44.028;20.466;2022-10-16T06:09:01;18.48;;;9.38;;
66179;SDS011;52986;44.028;20.466;2022-10-16T06:11:28;23.13;;;10.40;;
66179;SDS011;52986;44.028;20.466;2022-10-16T06:13:56;21.95;;;10.40;;
66179;SDS011;52986;44.028;20.466;2022-10-16T06:16:23;23.48;;;10.90;;
66179;SDS011;52986;44.028;20.466;2022-10-16T06:18:52;22.65;;;10.95;;
66179;SDS011;52986;44.028;20.466;2022-10-16T06:21:23;18.98;;;9.13;;
66179;SDS011;52986;44.028;20.466;2022-10-16T06:23:51;23.35;;;9.73;;
66179;SDS011;52986;44.028;20.466;2022-10-16T06:26:18;17.95;;;9.45;;
66179;SDS011;52986;44.028;20.466;2022-10-16T06:28:45;18.17;;;9.77;;
66179;SDS011;52986;44.028;20.466;2022-10-16T06:31:11;20.45;;;10.23;;
66179;SDS011;52986;44.028;20.466;2022-10-16T06:33:37;17.85;;;9.43;;
66179;SDS011;52986;44.028;20.466;2022-10-16T06:36:05;19.23;;;8.98;;
66179;SDS011;52986;44.028;20.466;2022-10-16T06:38:33;19.63;;;11.20;;
66179;SDS011;52986;44.028;20.466;2022-10-16T06:40:59;20.13;;;12.35;;
66179;SDS011;52986;44.028;20.466;2022-10-16T06:43:25;22.02;;;12.07;;
66179;SDS011;52986;44.028;20.466;2022-10-16T06:45:54;19.63;;;11.43;;
66179;SDS011;52986;44.028;20.466;2022-10-16T06:48:20;19.90;;;11.65;;
66179;SDS011;52986;44.028;20.466;2022-10-16T06:51:05;19.70;;;11.27;;
66179;SDS011;52986;44.028;20.466;2022-10-16T06:53:32;53.63;;;11.50;;
66179;SDS011;52986;44.028;20.466;2022-10-16T06:56:15;17.95;;;9.02;;
66179;SDS011;52986;44.028;20.466;2022-10-16T06:58:43;16.98;;;8.52;;
66179;SDS011;52986;44.028;20.466;2022-10-16T07:01:09;15.05;;;8.93;;
66179;SDS011;52986;44.028;20.466;2022-10-16T07:03:36;15.85;;;9.07;;
66179;SDS011;52986;44.028;20.466;2022-10-16T07:06:03;15.40;;;9.23;;
66179;SDS011;52986;44.028;20.466;2022-10-16T07:08:30;17.10;;;9.32;;
66179;SDS011;52986;44.028;20.466;2022-10-16T07:11:00;15.32;;;9.23;;
66179;SDS011;52986;44.028;20.466;2022-10-16T07:13:27;17.02;;;10.02;;
66179;SDS011;52986;44.028;20.466;2022-10-16T07:15:52;17.65;;;9.50;;
66179;SDS011;52986;44.028;20.466;2022-10-16T07:18:18;19.38;;;8.93;;
66179;SDS011;52986;44.028;20.466;2022-10-16T07:20:43;16.58;;;8.88;;
66179;SDS011;52986;44.028;20.466;2022-10-16T07:23:09;15.93;;;8.68;;
66179;SDS011;52986;44.028;20.466;2022-10-16T07:25:34;14.07;;;8.32;;
66179;SDS011;52986;44.028;20.466;2022-10-16T07:27:59;15.85;;;9.10;;
66179;SDS011;52986;44.028;20.466;2022-10-16T07:30:25;15.07;;;8.52;;
66179;SDS011;52986;44.028;20.466;2022-10-16T07:32:50;14.73;;;8.20;;
66179;SDS011;52986;44.028;20.466;2022-10-16T07:35:15;13.70;;;7.97;;
66179;SDS011;52986;44.028;20.466;2022-10-16T07:37:44;15.30;;;8.23;;
66179;SDS011;52986;44.028;20.466;2022-10-16T07:40:10;14.18;;;7.78;;
66179;SDS011;52986;44.028;20.466;2022-10-16T07:42:36;22.00;;;8.45;;
66179;SDS011;52986;44.028;20.466;2022-10-16T07:45:01;14.73;;;8.02;;
66179;SDS011;52986;44.028;20.466;2022-10-16T07:47:27;15.73;;;8.07;;
66179;SDS011;52986;44.028;20.466;2022-10-16T07:49:52;16.08;;;7.70;;
66179;SDS011;52986;44.028;20.466;2022-10-16T07:52:18;14.52;;;7.85;;
66179;SDS011;52986;44.028;20.466;2022-10-16T07:54:43;14.50;;;7.20;;
66179;SDS011;52986;44.028;20.466;2022-10-16T07:57:08;13.32;;;6.93;;
66179;SDS011;52986;44.028;20.466;2022-10-16T07:59:34;16.02;;;7.57;;
66179;SDS011;52986;44.028;20.466;2022-10-16T08:01:59;14.48;;;6.53;;
66179;SDS011;52986;44.028;20.466;2022-10-16T08:04:24;15.87;;;6.40;;
66179;SDS011;52986;44.028;20.466;2022-10-16T08:06:50;16.10;;;5.82;;
66179;SDS011;52986;44.028;20.466;2022-10-16T08:09:15;13.05;;;5.82;;
66179;SDS011;52986;44.028;20.466;2022-10-16T08:11:40;10.63;;;5.00;;
66179;SDS011;52986;44.028;20.466;2022-10-16T08:14:06;12.37;;;5.20;;
66179;SDS011;52986;44.028;20.466;2022-10-16T08:16:31;11.60;;;5.35;;
66179;SDS011;52986;44.028;20.466;2022-10-16T08:18:56;10.75;;;5.15;;
66179;SDS011;52986;44.028;20.466;2022-10-16T08:21:22;10.27;;;4.63;;
66179;SDS011;52986;44.028;20.466;2022-10-16T08:23:48;10.18;;;5.10;;
66179;SDS011;52986;44.028;20.466;2022-10-16T08:26:15;12.43;;;5.35;;
66179;SDS011;52986;44.028;20.466;2022-10-16T08:28:40;12.77;;;4.88;;
66179;SDS011;52986;44.028;20.466;2022-10-16T08:31:06;12.07;;;4.68;;
66179;SDS011;52986;44.028;20.466;2022-10-16T08:33:37;10.10;;;4.72;;
66179;SDS011;52986;44.028;20.466;2022-10-16T08:36:03;11.30;;;4.95;;
66179;SDS011;52986;44.028;20.466;2022-10-16T08:38:29;9.52;;;4.82;;
66179;SDS011;52986;44.028;20.466;2022-10-16T08:41:24;12.80;;;4.97;;
66179;SDS011;52986;44.028;20.466;2022-10-16T08:44:03;9.93;;;4.10;;
66179;SDS011;52986;44.028;20.466;2022-10-16T08:46:39;9.02;;;4.10;;
66179;SDS011;52986;44.028;20.466;2022-10-16T08:49:11;9.35;;;4.57;;
66179;SDS011;52986;44.028;20.466;2022-10-16T08:51:41;9.77;;;4.30;;
66179;SDS011;52986;44.028;20.466;2022-10-16T08:56:53;10.48;;;4.70;;
66179;SDS011;52986;44.028;20.466;2022-10-16T08:59:19;9.70;;;4.22;;
66179;SDS011;52986;44.028;20.466;2022-10-16T09:01:45;8.95;;;4.30;;
66179;SDS011;52986;44.028;20.466;2022-10-16T09:07:19;11.48;;;4.18;;
66179;SDS011;52986;44.028;20.466;2022-10-16T09:17:52;10.20;;;4.07;;
66179;SDS011;52986;44.028;20.466;2022-10-16T09:20:30;10.10;;;4.35;;
66179;SDS011;52986;44.028;20.466;2022-10-16T09:23:27;12.52;;;4.18;;
66179;SDS011;52986;44.028;20.466;2022-10-16T09:25:53;9.45;;;4.35;;
66179;SDS011;52986;44.028;20.466;2022-10-16T09:28:20;14.73;;;4.85;;
66179;SDS011;52986;44.028;20.466;2022-10-16T09:30:46;10.85;;;4.40;;
66179;SDS011;52986;44.028;20.466;2022-10-16T09:33:14;13.23;;;4.50;;
66179;SDS011;52986;44.028;20.466;2022-10-16T09:35:43;10.27;;;4.75;;
66179;SDS011;52986;44.028;20.466;2022-10-16T09:38:20;10.18;;;4.60;;
66179;SDS011;52986;44.028;20.466;2022-10-16T09:41:00;11.07;;;4.55;;
66179;SDS011;52986;44.028;20.466;2022-10-16T09:43:28;9.20;;;4.38;;
66179;SDS011;52986;44.028;20.466;2022-10-16T09:46:02;10.50;;;4.30;;
66179;SDS011;52986;44.028;20.466;2022-10-16T09:48:37;10.82;;;4.50;;
66179;SDS011;52986;44.028;20.466;2022-10-16T09:51:16;11.15;;;4.43;;
66179;SDS011;52986;44.028;20.466;2022-10-16T09:53:45;9.98;;;4.68;;
66179;SDS011;52986;44.028;20.466;2022-10-16T09:56:20;10.50;;;4.40;;
66179;SDS011;52986;44.028;20.466;2022-10-16T09:58:51;9.57;;;4.40;;
66179;SDS011;52986;44.028;20.466;2022-10-16T10:01:18;9.68;;;4.50;;
66179;SDS011;52986;44.028;20.466;2022-10-16T10:03:45;9.95;;;4.22;;
66179;SDS011;52986;44.028;20.466;2022-10-16T10:06:23;10.73;;;4.50;;
66179;SDS011;52986;44.028;20.466;2022-10-16T10:19:38;10.40;;;4.67;;
66179;SDS011;52986;44.028;20.466;2022-10-16T10:22:27;11.43;;;4.90;;
66179;SDS011;52986;44.028;20.466;2022-10-16T10:41:03;11.57;;;4.70;;
66179;SDS011;52986;44.028;20.466;2022-10-16T10:46:25;10.27;;;4.43;;
66179;SDS011;52986;44.028;20.466;2022-10-16T10:52:05;10.30;;;4.63;;
66179;SDS011;52986;44.028;20.466;2022-10-16T10:55:15;11.20;;;4.65;;
66179;SDS011;52986;44.028;20.466;2022-10-16T11:01:16;9.88;;;4.72;;
66179;SDS011;52986;44.028;20.466;2022-10-16T11:09:02;10.20;;;4.80;;
66179;SDS011;52986;44.028;20.466;2022-10-16T11:11:42;10.02;;;5.13;;
66179;SDS011;52986;44.028;20.466;2022-10-16T11:14:14;9.68;;;5.07;;
66179;SDS011;52986;44.028;20.466;2022-10-16T11:16:51;9.65;;;4.90;;
66179;SDS011;52986;44.028;20.466;2022-10-16T11:27:04;11.23;;;5.50;;
66179;SDS011;52986;44.028;20.466;2022-10-16T11:29:34;10.75;;;5.13;;
66179;SDS011;52986;44.028;20.466;2022-10-16T11:32:06;11.85;;;5.50;;
66179;SDS011;52986;44.028;20.466;2022-10-16T11:34:51;12.13;;;5.20;;
66179;SDS011;52986;44.028;20.466;2022-10-16T11:37:27;11.98;;;5.38;;
66179;SDS011;52986;44.028;20.466;2022-10-16T11:39:58;13.85;;;5.57;;
66179;SDS011;52986;44.028;20.466;2022-10-16T11:42:41;11.48;;;5.20;;
66179;SDS011;52986;44.028;20.466;2022-10-16T11:45:24;11.25;;;5.20;;
66179;SDS011;52986;44.028;20.466;2022-10-16T11:47:57;10.15;;;5.00;;
66179;SDS011;52986;44.028;20.466;2022-10-16T11:50:34;13.43;;;5.07;;
66179;SDS011;52986;44.028;20.466;2022-10-16T11:55:38;12.38;;;5.25;;
66179;SDS011;52986;44.028;20.466;2022-10-16T12:00:46;12.63;;;5.10;;
66179;SDS011;52986;44.028;20.466;2022-10-16T12:08:28;11.18;;;4.93;;
66179;SDS011;52986;44.028;20.466;2022-10-16T12:10:54;11.45;;;5.47;;
66179;SDS011;52986;44.028;20.466;2022-10-16T12:13:45;13.85;;;5.50;;
66179;SDS011;52986;44.028;20.466;2022-10-16T12:18:39;11.30;;;5.80;;
66179;SDS011;52986;44.028;20.466;2022-10-16T12:21:05;11.25;;;5.13;;
66179;SDS011;52986;44.028;20.466;2022-10-16T12:23:32;12.23;;;6.10;;
66179;SDS011;52986;44.028;20.466;2022-10-16T12:26:02;11.75;;;5.20;;
66179;SDS011;52986;44.028;20.466;2022-10-16T12:28:29;14.32;;;5.38;;
66179;SDS011;52986;44.028;20.466;2022-10-16T12:31:04;11.80;;;5.78;;
66179;SDS011;52986;44.028;20.466;2022-10-16T12:33:39;11.75;;;5.72;;
66179;SDS011;52986;44.028;20.466;2022-10-16T12:36:16;12.60;;;5.72;;
66179;SDS011;52986;44.028;20.466;2022-10-16T12:38:55;15.63;;;6.20;;
66179;SDS011;52986;44.028;20.466;2022-10-16T12:41:25;13.15;;;5.30;;
66179;SDS011;52986;44.028;20.466;2022-10-16T12:43:52;11.65;;;4.68;;
66179;SDS011;52986;44.028;20.466;2022-10-16T12:48:43;14.83;;;5.37;;
66179;SDS011;52986;44.028;20.466;2022-10-16T12:54:48;11.48;;;5.25;;
66179;SDS011;52986;44.028;20.466;2022-10-16T12:57:21;10.63;;;5.30;;
66179;SDS011;52986;44.028;20.466;2022-10-16T13:14:27;12.52;;;5.32;;
66179;SDS011;52986;44.028;20.466;2022-10-16T13:16:41;11.27;;;5.20;;
66179;SDS011;52986;44.028;20.466;2022-10-16T13:29:34;10.80;;;4.97;;
66179;SDS011;52986;44.028;20.466;2022-10-16T13:32:00;11.30;;;5.35;;
66179;SDS011;52986;44.028;20.466;2022-10-16T13:34:32;10.90;;;5.32;;
66179;SDS011;52986;44.028;20.466;2022-10-16T13:36:57;12.20;;;5.50;;
66179;SDS011;52986;44.028;20.466;2022-10-16T13:39:23;14.48;;;5.50;;
66179;SDS011;52986;44.028;20.466;2022-10-16T13:44:40;12.65;;;5.47;;
66179;SDS011;52986;44.028;20.466;2022-10-16T13:47:15;12.52;;;5.85;;
66179;SDS011;52986;44.028;20.466;2022-10-16T13:49:44;13.63;;;6.15;;
66179;SDS011;52986;44.028;20.466;2022-10-16T13:52:19;16.15;;;6.05;;
66179;SDS011;52986;44.028;20.466;2022-10-16T13:54:46;13.38;;;6.07;;
66179;SDS011;52986;44.028;20.466;2022-10-16T13:57:13;14.00;;;6.40;;
66179;SDS011;52986;44.028;20.466;2022-10-16T13:59:39;14.40;;;6.75;;
66179;SDS011;52986;44.028;20.466;2022-10-16T14:02:17;12.55;;;6.20;;
66179;SDS011;52986;44.028;20.466;2022-10-16T14:04:50;14.20;;;6.72;;
66179;SDS011;52986;44.028;20.466;2022-10-16T14:07:26;14.80;;;6.20;;
66179;SDS011;52986;44.028;20.466;2022-10-16T14:09:53;13.43;;;6.20;;
66179;SDS011;52986;44.028;20.466;2022-10-16T14:12:19;12.35;;;5.72;;
66179;SDS011;52986;44.028;20.466;2022-10-16T14:14:47;12.63;;;6.30;;
66179;SDS011;52986;44.028;20.466;2022-10-16T14:17:24;12.23;;;5.60;;
66179;SDS011;52986;44.028;20.466;2022-10-16T14:19:53;12.00;;;5.85;;
66179;SDS011;52986;44.028;20.466;2022-10-16T14:24:57;12.65;;;6.20;;
66179;SDS011;52986;44.028;20.466;2022-10-16T14:27:26;13.35;;;5.90;;
66179;SDS011;52986;44.028;20.466;2022-10-16T14:30:14;14.07;;;6.20;;
66179;SDS011;52986;44.028;20.466;2022-10-16T14:32:52;13.52;;;5.97;;
66179;SDS011;52986;44.028;20.466;2022-10-16T14:35:26;11.07;;;5.35;;
66179;SDS011;52986;44.028;20.466;2022-10-16T14:38:03;11.88;;;5.88;;
66179;SDS011;52986;44.028;20.466;2022-10-16T14:40:30;14.10;;;6.15;;
66179;SDS011;52986;44.028;20.466;2022-10-16T14:42:57;13.13;;;5.93;;
66179;SDS011;52986;44.028;20.466;2022-10-16T14:45:24;10.73;;;5.65;;
66179;SDS011;52986;44.028;20.466;2022-10-16T14:47:53;11.40;;;5.68;;
66179;SDS011;52986;44.028;20.466;2022-10-16T14:50:21;13.10;;;6.15;;
66179;SDS011;52986;44.028;20.466;2022-10-16T14:52:47;13.52;;;6.53;;
66179;SDS011;52986;44.028;20.466;2022-10-16T14:55:13;14.00;;;6.70;;
66179;SDS011;52986;44.028;20.466;2022-10-16T14:57:39;20.17;;;7.50;;
66179;SDS011;52986;44.028;20.466;2022-10-16T15:00:09;28.02;;;7.55;;
66179;SDS011;52986;44.028;20.466;2022-10-16T15:02:40;15.93;;;7.57;;
66179;SDS011;52986;44.028;20.466;2022-10-16T15:05:20;15.32;;;8.00;;
66179;SDS011;52986;44.028;20.466;2022-10-16T15:07:48;15.68;;;8.30;;
66179;SDS011;52986;44.028;20.466;2022-10-16T15:10:17;15.85;;;7.95;;
66179;SDS011;52986;44.028;20.466;2022-10-16T15:12:42;17.90;;;7.97;;
66179;SDS011;52986;44.028;20.466;2022-10-16T15:17:53;14.82;;;7.78;;
66179;SDS011;52986;44.028;20.466;2022-10-16T15:20:22;13.80;;;7.13;;
66179;SDS011;52986;44.028;20.466;2022-10-16T15:22:51;14.10;;;7.10;;
66179;SDS011;52986;44.028;20.466;2022-10-16T15:25:30;15.95;;;7.55;;
66179;SDS011;52986;44.028;20.466;2022-10-16T15:27:59;16.67;;;7.45;;
66179;SDS011;52986;44.028;20.466;2022-10-16T15:30:26;13.93;;;6.95;;
66179;SDS011;52986;44.028;20.466;2022-10-16T15:32:52;14.63;;;6.30;;
66179;SDS011;52986;44.028;20.466;2022-10-16T15:35:17;17.58;;;6.60;;
66179;SDS011;52986;44.028;20.466;2022-10-16T15:37:43;15.73;;;7.95;;
66179;SDS011;52986;44.028;20.466;2022-10-16T15:40:09;20.88;;;9.95;;
66179;SDS011;52986;44.028;20.466;2022-10-16T15:42:35;29.83;;;16.02;;
66179;SDS011;52986;44.028;20.466;2022-10-16T15:45:01;34.30;;;17.08;;
66179;SDS011;52986;44.028;20.466;2022-10-16T15:47:28;34.78;;;17.63;;
66179;SDS011;52986;44.028;20.466;2022-10-16T15:49:53;26.30;;;14.73;;
66179;SDS011;52986;44.028;20.466;2022-10-16T15:52:18;23.53;;;13.70;;
66179;SDS011;52986;44.028;20.466;2022-10-16T15:54:44;24.95;;;13.65;;
66179;SDS011;52986;44.028;20.466;2022-10-16T15:57:09;25.20;;;13.13;;
66179;SDS011;52986;44.028;20.466;2022-10-16T15:59:35;23.10;;;12.10;;
66179;SDS011;52986;44.028;20.466;2022-10-16T16:02:00;24.33;;;10.38;;
66179;SDS011;52986;44.028;20.466;2022-10-16T16:04:25;24.08;;;10.82;;
66179;SDS011;52986;44.028;20.466;2022-10-16T16:06:51;25.05;;;11.32;;
66179;SDS011;52986;44.028;20.466;2022-10-16T16:09:16;29.13;;;12.68;;
66179;SDS011;52986;44.028;20.466;2022-10-16T16:11:42;25.30;;;12.00;;
66179;SDS011;52986;44.028;20.466;2022-10-16T16:14:10;22.75;;;11.20;;
66179;SDS011;52986;44.028;20.466;2022-10-16T16:16:38;26.08;;;11.50;;
66179;SDS011;52986;44.028;20.466;2022-10-16T16:19:04;23.70;;;12.15;;
66179;SDS011;52986;44.028;20.466;2022-10-16T16:21:31;22.90;;;10.57;;
66179;SDS011;52986;44.028;20.466;2022-10-16T16:23:57;23.88;;;10.13;;
66179;SDS011;52986;44.028;20.466;2022-10-16T16:26:26;31.17;;;13.02;;
66179;SDS011;52986;44.028;20.466;2022-10-16T16:28:54;28.67;;;13.45;;
66179;SDS011;52986;44.028;20.466;2022-10-16T16:31:20;32.55;;;15.88;;
66179;SDS011;52986;44.028;20.466;2022-10-16T16:33:49;28.52;;;14.10;;
66179;SDS011;52986;44.028;20.466;2022-10-16T16:36:16;38.22;;;16.05;;
66179;SDS011;52986;44.028;20.466;2022-10-16T16:38:42;32.50;;;14.93;;